sensor_id;sensor_type;location;lat;lon;timestamp;pressure;altitude;pressure_sealevel;temperature;humidity
64053;BME280;50299;49.524;8.536;2023-09-19T00:02:20;99999.41;;;13.28;80.32
64053;BME280;50299;49.524;8.536;2023-09-19T00:04:46;100001.75;;;13.26;80.90
64053;BME280;50299;49.524;8.536;2023-09-19T00:07:14;100001.13;;;13.33;80.33
64053;BME280;50299;49.524;8.536;2023-09-19T00:09:42;100002.13;;;13.25;81.81
64053;BME280;50299;49.524;8.536;2023-09-19T00:12:10;99999.41;;;13.28;81.14
64053;BME280;50299;49.524;8.536;2023-09-19T00:14:39;100012.66;;;13.19;82.32
64053;BME280;50299;49.524;8.536;2023-09-19T00:17:06;100008.19;;;13.46;81.01
64053;BME280;50299;49.524;8.536;2023-09-19T00:19:37;100016.25;;;13.67;80.57
64053;BME280;50299;49.524;8.536;2023-09-19T00:22:06;100019.41;;;13.66;79.78
64053;BME280;50299;49.524;8.536;2023-09-19T00:24:33;100021.09;;;13.70;79.33
64053;BME280;50299;49.524;8.536;2023-09-19T00:27:00;100019.66;;;13.61;79.77
64053;BME280;50299;49.524;8.536;2023-09-19T00:29:27;100030.53;;;13.50;80.02
64053;BME280;50299;49.524;8.536;2023-09-19T00:31:55;100032.41;;;13.62;80.42
64053;BME280;50299;49.524;8.536;2023-09-19T00:34:23;100027.75;;;13.66;79.45
64053;BME280;50299;49.524;8.536;2023-09-19T00:36:51;100023.97;;;13.74;79.51
64053;BME280;50299;49.524;8.536;2023-09-19T00:39:19;100031.72;;;13.84;79.06
64053;BME280;50299;49.524;8.536;2023-09-19T00:41:46;100025.00;;;13.85;79.39
64053;BME280;50299;49.524;8.536;2023-09-19T00:44:13;100034.03;;;13.98;78.76
64053;BME280;50299;49.524;8.536;2023-09-19T00:46:40;100035.59;;;13.79;78.92
64053;BME280;50299;49.524;8.536;2023-09-19T00:49:10;100029.47;;;13.90;78.18
64053;BME280;50299;49.524;8.536;2023-09-19T00:51:38;100040.75;;;13.97;77.79
64053;BME280;50299;49.524;8.536;2023-09-19T00:54:08;100045.25;;;13.86;79.05
64053;BME280;50299;49.524;8.536;2023-09-19T00:56:35;100042.25;;;13.59;79.69
64053;BME280;50299;49.524;8.536;2023-09-19T00:59:04;100049.50;;;13.79;79.19
64053;BME280;50299;49.524;8.536;2023-09-19T01:01:30;100048.22;;;13.77;79.01
64053;BME280;50299;49.524;8.536;2023-09-19T01:03:58;100050.34;;;13.99;78.78
64053;BME280;50299;49.524;8.536;2023-09-19T01:06:24;100059.38;;;14.12;76.75
64053;BME280;50299;49.524;8.536;2023-09-19T01:08:52;100052.84;;;14.04;76.75
64053;BME280;50299;49.524;8.536;2023-09-19T01:11:30;100053.59;;;14.21;77.07
64053;BME280;50299;49.524;8.536;2023-09-19T01:14:10;100060.66;;;14.34;76.80
64053;BME280;50299;49.524;8.536;2023-09-19T01:20:36;100071.00;;;14.34;76.98
64053;BME280;50299;49.524;8.536;2023-09-19T01:22:48;100066.56;;;14.48;77.35
64053;BME280;50299;49.524;8.536;2023-09-19T01:25:50;100062.78;;;14.60;76.75
64053;BME280;50299;49.524;8.536;2023-09-19T01:28:51;100072.69;;;14.77;76.86
64053;BME280;50299;49.524;8.536;2023-09-19T01:31:21;100075.53;;;14.80;74.80
64053;BME280;50299;49.524;8.536;2023-09-19T01:34:02;100063.50;;;14.96;75.24
64053;BME280;50299;49.524;8.536;2023-09-19T01:36:33;100067.38;;;15.11;75.11
64053;BME280;50299;49.524;8.536;2023-09-19T01:39:07;100065.50;;;14.95;73.41
64053;BME280;50299;49.524;8.536;2023-09-19T01:41:45;100077.19;;;15.04;73.88
64053;BME280;50299;49.524;8.536;2023-09-19T01:44:21;100081.31;;;15.11;72.43
64053;BME280;50299;49.524;8.536;2023-09-19T01:46:49;100080.34;;;15.03;73.14
64053;BME280;50299;49.524;8.536;2023-09-19T01:49:25;100076.56;;;14.92;73.33
64053;BME280;50299;49.524;8.536;2023-09-19T01:52:09;100075.09;;;14.98;74.67
64053;BME280;50299;49.524;8.536;2023-09-19T01:54:46;100081.88;;;15.00;73.62
64053;BME280;50299;49.524;8.536;2023-09-19T01:59:59;100086.66;;;15.00;73.90
64053;BME280;50299;49.524;8.536;2023-09-19T02:02:44;100087.19;;;15.05;72.76
64053;BME280;50299;49.524;8.536;2023-09-19T02:05:11;100094.44;;;14.91;72.56
64053;BME280;50299;49.524;8.536;2023-09-19T02:07:41;100098.66;;;14.85;72.91
64053;BME280;50299;49.524;8.536;2023-09-19T02:10:07;100087.03;;;14.79;73.66
64053;BME280;50299;49.524;8.536;2023-09-19T02:12:36;100100.22;;;14.63;73.73
64053;BME280;50299;49.524;8.536;2023-09-19T02:15:04;100097.63;;;14.35;74.74
64053;BME280;50299;49.524;8.536;2023-09-19T02:17:33;100098.41;;;14.35;75.69
64053;BME280;50299;49.524;8.536;2023-09-19T02:20:00;100099.47;;;14.11;75.54
64053;BME280;50299;49.524;8.536;2023-09-19T02:22:27;100114.88;;;14.09;76.05
64053;BME280;50299;49.524;8.536;2023-09-19T02:24:54;100112.50;;;14.26;75.47
64053;BME280;50299;49.524;8.536;2023-09-19T02:27:20;100117.34;;;14.29;75.27
64053;BME280;50299;49.524;8.536;2023-09-19T02:29:49;100124.41;;;14.27;74.97
64053;BME280;50299;49.524;8.536;2023-09-19T02:32:16;100117.28;;;13.94;75.01
64053;BME280;50299;49.524;8.536;2023-09-19T02:34:44;100121.75;;;14.15;75.76
64053;BME280;50299;49.524;8.536;2023-09-19T02:37:11;100121.63;;;14.27;74.90
64053;BME280;50299;49.524;8.536;2023-09-19T02:39:42;100120.13;;;14.29;74.00
64053;BME280;50299;49.524;8.536;2023-09-19T02:42:09;100130.56;;;14.33;73.97
64053;BME280;50299;49.524;8.536;2023-09-19T02:44:38;100134.59;;;14.19;74.51
64053;BME280;50299;49.524;8.536;2023-09-19T02:47:06;100135.75;;;14.18;74.44
64053;BME280;50299;49.524;8.536;2023-09-19T02:49:33;100139.97;;;14.12;74.96
64053;BME280;50299;49.524;8.536;2023-09-19T02:51:59;100137.19;;;14.12;75.37
64053;BME280;50299;49.524;8.536;2023-09-19T02:54:26;100135.66;;;14.15;75.01
64053;BME280;50299;49.524;8.536;2023-09-19T02:56:52;100141.84;;;14.24;74.40
64053;BME280;50299;49.524;8.536;2023-09-19T02:59:23;100150.78;;;14.49;73.45
64053;BME280;50299;49.524;8.536;2023-09-19T03:01:53;100149.81;;;14.41;74.02
64053;BME280;50299;49.524;8.536;2023-09-19T03:04:20;100154.06;;;14.19;72.85
64053;BME280;50299;49.524;8.536;2023-09-19T03:06:48;100154.41;;;14.34;73.50
64053;BME280;50299;49.524;8.536;2023-09-19T03:09:17;100149.44;;;14.43;73.65
64053;BME280;50299;49.524;8.536;2023-09-19T03:11:45;100159.22;;;14.52;72.62
64053;BME280;50299;49.524;8.536;2023-09-19T03:14:13;100155.88;;;14.47;73.01
64053;BME280;50299;49.524;8.536;2023-09-19T03:16:41;100148.28;;;14.44;73.73
64053;BME280;50299;49.524;8.536;2023-09-19T03:19:08;100157.97;;;14.34;73.16
64053;BME280;50299;49.524;8.536;2023-09-19T03:21:37;100168.81;;;14.39;72.12
64053;BME280;50299;49.524;8.536;2023-09-19T03:24:08;100158.06;;;14.22;73.04
64053;BME280;50299;49.524;8.536;2023-09-19T03:26:34;100158.88;;;14.06;74.19
64053;BME280;50299;49.524;8.536;2023-09-19T03:29:05;100164.53;;;13.94;73.56
64053;BME280;50299;49.524;8.536;2023-09-19T03:31:36;100163.03;;;13.97;73.24
64053;BME280;50299;49.524;8.536;2023-09-19T03:34:03;100164.91;;;13.77;72.53
64053;BME280;50299;49.524;8.536;2023-09-19T03:36:30;100173.25;;;13.93;72.57
64053;BME280;50299;49.524;8.536;2023-09-19T03:38:57;100172.06;;;13.94;73.54
64053;BME280;50299;49.524;8.536;2023-09-19T03:41:24;100176.28;;;13.88;75.87
64053;BME280;50299;49.524;8.536;2023-09-19T03:43:50;100172.91;;;13.78;73.98
64053;BME280;50299;49.524;8.536;2023-09-19T03:46:17;100175.31;;;13.80;74.54
64053;BME280;50299;49.524;8.536;2023-09-19T03:48:44;100173.94;;;13.90;73.29
64053;BME280;50299;49.524;8.536;2023-09-19T03:51:10;100182.56;;;13.85;73.42
64053;BME280;50299;49.524;8.536;2023-09-19T03:53:37;100181.31;;;13.82;71.88
64053;BME280;50299;49.524;8.536;2023-09-19T03:56:04;100180.50;;;13.81;72.14
64053;BME280;50299;49.524;8.536;2023-09-19T03:58:30;100176.38;;;13.75;73.04
64053;BME280;50299;49.524;8.536;2023-09-19T04:00:57;100183.63;;;13.80;72.20
64053;BME280;50299;49.524;8.536;2023-09-19T04:03:24;100184.09;;;13.66;70.99
64053;BME280;50299;49.524;8.536;2023-09-19T04:06:01;100183.34;;;13.69;71.20
64053;BME280;50299;49.524;8.536;2023-09-19T04:08:28;100187.41;;;13.72;71.10
64053;BME280;50299;49.524;8.536;2023-09-19T04:10:55;100192.84;;;13.68;71.64
64053;BME280;50299;49.524;8.536;2023-09-19T04:13:23;100178.44;;;13.63;73.27
64053;BME280;50299;49.524;8.536;2023-09-19T04:15:49;100195.25;;;13.54;72.28
64053;BME280;50299;49.524;8.536;2023-09-19T04:18:18;100195.69;;;13.56;72.83
64053;BME280;50299;49.524;8.536;2023-09-19T04:20:50;100189.59;;;13.50;72.83
64053;BME280;50299;49.524;8.536;2023-09-19T04:23:17;100191.44;;;13.46;73.19
64053;BME280;50299;49.524;8.536;2023-09-19T04:25:43;100191.63;;;13.38;73.77
64053;BME280;50299;49.524;8.536;2023-09-19T04:28:12;100204.59;;;13.33;73.60
64053;BME280;50299;49.524;8.536;2023-09-19T04:30:39;100204.63;;;13.21;74.29
64053;BME280;50299;49.524;8.536;2023-09-19T04:33:08;100210.94;;;13.34;73.53
64053;BME280;50299;49.524;8.536;2023-09-19T04:35:40;100209.38;;;13.21;73.52
64053;BME280;50299;49.524;8.536;2023-09-19T04:38:09;100215.91;;;13.13;76.01
64053;BME280;50299;49.524;8.536;2023-09-19T04:40:35;100214.13;;;13.20;75.10
64053;BME280;50299;49.524;8.536;2023-09-19T04:43:02;100212.38;;;13.16;74.72
64053;BME280;50299;49.524;8.536;2023-09-19T04:45:29;100214.53;;;13.35;74.53
64053;BME280;50299;49.524;8.536;2023-09-19T04:47:55;100221.47;;;13.28;72.56
64053;BME280;50299;49.524;8.536;2023-09-19T04:50:22;100220.00;;;13.19;74.34
64053;BME280;50299;49.524;8.536;2023-09-19T04:52:50;100227.75;;;13.25;73.73
64053;BME280;50299;49.524;8.536;2023-09-19T04:55:18;100229.00;;;13.28;73.56
64053;BME280;50299;49.524;8.536;2023-09-19T04:57:46;100229.22;;;13.35;73.27
64053;BME280;50299;49.524;8.536;2023-09-19T05:00:15;100233.91;;;13.47;73.28
64053;BME280;50299;49.524;8.536;2023-09-19T05:02:43;100238.53;;;13.55;72.22
64053;BME280;50299;49.524;8.536;2023-09-19T05:05:10;100248.47;;;13.56;71.52
64053;BME280;50299;49.524;8.536;2023-09-19T05:07:41;100250.00;;;13.53;71.12
64053;BME280;50299;49.524;8.536;2023-09-19T05:10:09;100250.00;;;13.53;71.65
64053;BME280;50299;49.524;8.536;2023-09-19T05:12:36;100267.63;;;13.61;71.98
64053;BME280;50299;49.524;8.536;2023-09-19T05:15:03;100262.66;;;13.67;70.79
64053;BME280;50299;49.524;8.536;2023-09-19T05:17:34;100268.75;;;13.72;70.25
64053;BME280;50299;49.524;8.536;2023-09-19T05:20:01;100272.09;;;13.94;74.05
64053;BME280;50299;49.524;8.536;2023-09-19T05:22:44;100269.53;;;14.17;72.84
64053;BME280;50299;49.524;8.536;2023-09-19T05:25:12;100270.88;;;14.23;67.72
64053;BME280;50299;49.524;8.536;2023-09-19T05:27:46;100280.94;;;14.12;64.87
64053;BME280;50299;49.524;8.536;2023-09-19T05:30:15;100276.16;;;14.12;65.15
64053;BME280;50299;49.524;8.536;2023-09-19T05:32:43;100284.56;;;13.84;65.02
64053;BME280;50299;49.524;8.536;2023-09-19T05:35:10;100281.41;;;13.86;66.93
64053;BME280;50299;49.524;8.536;2023-09-19T05:37:40;100282.25;;;13.86;65.39
64053;BME280;50299;49.524;8.536;2023-09-19T05:40:08;100292.03;;;13.96;67.19
64053;BME280;50299;49.524;8.536;2023-09-19T05:42:38;100287.81;;;14.02;67.76
64053;BME280;50299;49.524;8.536;2023-09-19T05:45:12;100281.81;;;14.16;65.69
64053;BME280;50299;49.524;8.536;2023-09-19T05:47:42;100276.88;;;14.09;69.96
64053;BME280;50299;49.524;8.536;2023-09-19T05:50:13;100281.72;;;14.12;66.74
64053;BME280;50299;49.524;8.536;2023-09-19T05:52:41;100277.88;;;14.17;65.40
64053;BME280;50299;49.524;8.536;2023-09-19T05:55:09;100279.28;;;14.11;64.54
64053;BME280;50299;49.524;8.536;2023-09-19T05:57:37;100286.59;;;14.15;65.80
64053;BME280;50299;49.524;8.536;2023-09-19T06:00:12;100289.81;;;14.17;65.30
64053;BME280;50299;49.524;8.536;2023-09-19T06:02:39;100301.19;;;14.12;64.81
64053;BME280;50299;49.524;8.536;2023-09-19T06:05:09;100293.44;;;14.34;65.32
64053;BME280;50299;49.524;8.536;2023-09-19T06:07:37;100294.94;;;14.47;65.33
64053;BME280;50299;49.524;8.536;2023-09-19T06:10:04;100297.28;;;14.45;63.17
64053;BME280;50299;49.524;8.536;2023-09-19T06:12:41;100300.16;;;14.33;64.54
64053;BME280;50299;49.524;8.536;2023-09-19T06:15:11;100307.44;;;14.53;63.30
64053;BME280;50299;49.524;8.536;2023-09-19T06:17:51;100311.53;;;14.59;62.50
64053;BME280;50299;49.524;8.536;2023-09-19T06:20:17;100318.97;;;14.71;63.10
64053;BME280;50299;49.524;8.536;2023-09-19T06:22:46;100320.97;;;14.70;64.73
64053;BME280;50299;49.524;8.536;2023-09-19T06:25:13;100321.84;;;14.90;61.32
64053;BME280;50299;49.524;8.536;2023-09-19T06:27:48;100322.84;;;14.66;62.05
64053;BME280;50299;49.524;8.536;2023-09-19T06:30:17;100326.63;;;14.74;65.44
64053;BME280;50299;49.524;8.536;2023-09-19T06:32:46;100330.72;;;14.80;62.82
64053;BME280;50299;49.524;8.536;2023-09-19T06:35:15;100330.03;;;14.67;63.58
64053;BME280;50299;49.524;8.536;2023-09-19T06:37:44;100327.59;;;14.66;62.75
64053;BME280;50299;49.524;8.536;2023-09-19T06:40:12;100333.25;;;14.38;62.21
64053;BME280;50299;49.524;8.536;2023-09-19T06:42:44;100333.84;;;14.15;64.57
64053;BME280;50299;49.524;8.536;2023-09-19T06:45:14;100335.09;;;14.18;63.59
64053;BME280;50299;49.524;8.536;2023-09-19T06:47:47;100331.41;;;14.29;63.69
64053;BME280;50299;49.524;8.536;2023-09-19T06:50:25;100332.56;;;14.13;65.77
64053;BME280;50299;49.524;8.536;2023-09-19T06:52:55;100338.88;;;14.25;64.65
64053;BME280;50299;49.524;8.536;2023-09-19T06:55:25;100340.66;;;13.90;64.52
64053;BME280;50299;49.524;8.536;2023-09-19T06:57:57;100353.00;;;14.04;65.53
64053;BME280;50299;49.524;8.536;2023-09-19T07:00:31;100349.91;;;13.94;64.51
64053;BME280;50299;49.524;8.536;2023-09-19T07:03:08;100350.31;;;13.80;64.10
64053;BME280;50299;49.524;8.536;2023-09-19T07:05:38;100357.59;;;14.13;64.39
64053;BME280;50299;49.524;8.536;2023-09-19T07:08:07;100361.63;;;14.31;63.70
64053;BME280;50299;49.524;8.536;2023-09-19T07:10:36;100358.38;;;14.41;65.67
64053;BME280;50299;49.524;8.536;2023-09-19T07:13:15;100360.53;;;14.64;62.67
64053;BME280;50299;49.524;8.536;2023-09-19T07:15:46;100359.53;;;14.88;64.72
64053;BME280;50299;49.524;8.536;2023-09-19T07:18:14;100373.16;;;15.24;62.99
64053;BME280;50299;49.524;8.536;2023-09-19T07:20:48;100377.41;;;15.38;62.91
64053;BME280;50299;49.524;8.536;2023-09-19T07:23:20;100366.91;;;15.47;64.16
64053;BME280;50299;49.524;8.536;2023-09-19T07:25:47;100374.13;;;15.32;59.95
64053;BME280;50299;49.524;8.536;2023-09-19T07:28:17;100375.06;;;14.89;59.79
64053;BME280;50299;49.524;8.536;2023-09-19T07:30:44;100378.72;;;15.24;63.46
64053;BME280;50299;49.524;8.536;2023-09-19T07:33:11;100378.75;;;15.44;62.78
64053;BME280;50299;49.524;8.536;2023-09-19T07:35:39;100384.03;;;14.98;57.85
64053;BME280;50299;49.524;8.536;2023-09-19T07:38:10;100385.66;;;15.15;58.27
64053;BME280;50299;49.524;8.536;2023-09-19T07:40:38;100398.06;;;15.52;60.59
64053;BME280;50299;49.524;8.536;2023-09-19T07:43:05;100399.84;;;14.94;57.56
64053;BME280;50299;49.524;8.536;2023-09-19T07:45:33;100405.75;;;15.08;56.03
64053;BME280;50299;49.524;8.536;2023-09-19T07:47:59;100407.25;;;15.37;59.00
64053;BME280;50299;49.524;8.536;2023-09-19T07:50:31;100392.81;;;15.32;55.85
64053;BME280;50299;49.524;8.536;2023-09-19T07:52:58;100407.09;;;15.65;54.27
64053;BME280;50299;49.524;8.536;2023-09-19T07:55:25;100403.78;;;15.79;54.54
64053;BME280;50299;49.524;8.536;2023-09-19T07:57:52;100388.03;;;15.67;56.34
64053;BME280;50299;49.524;8.536;2023-09-19T08:00:19;100409.28;;;15.56;56.09
64053;BME280;50299;49.524;8.536;2023-09-19T08:02:46;100407.00;;;15.97;54.14
64053;BME280;50299;49.524;8.536;2023-09-19T08:05:24;100409.91;;;15.85;51.87
64053;BME280;50299;49.524;8.536;2023-09-19T08:07:53;100420.06;;;15.22;53.36
64053;BME280;50299;49.524;8.536;2023-09-19T08:10:20;100414.03;;;14.73;52.13
64053;BME280;50299;49.524;8.536;2023-09-19T08:12:48;100425.44;;;14.84;52.54
64053;BME280;50299;49.524;8.536;2023-09-19T08:15:16;100423.22;;;14.17;54.47
64053;BME280;50299;49.524;8.536;2023-09-19T08:17:43;100426.94;;;14.65;54.27
64053;BME280;50299;49.524;8.536;2023-09-19T08:20:10;100432.88;;;14.95;53.49
64053;BME280;50299;49.524;8.536;2023-09-19T08:22:50;100434.78;;;15.23;51.76
64053;BME280;50299;49.524;8.536;2023-09-19T08:25:19;100440.22;;;15.51;56.71
64053;BME280;50299;49.524;8.536;2023-09-19T08:27:46;100446.53;;;16.02;51.43
64053;BME280;50299;49.524;8.536;2023-09-19T08:30:19;100449.69;;;15.66;50.60
64053;BME280;50299;49.524;8.536;2023-09-19T08:32:51;100444.00;;;15.43;51.26
64053;BME280;50299;49.524;8.536;2023-09-19T08:35:19;100445.66;;;15.63;50.46
64053;BME280;50299;49.524;8.536;2023-09-19T08:37:46;100445.69;;;15.47;52.38
64053;BME280;50299;49.524;8.536;2023-09-19T08:40:12;100452.06;;;15.48;49.49
64053;BME280;50299;49.524;8.536;2023-09-19T08:42:55;100446.19;;;15.02;52.72
64053;BME280;50299;49.524;8.536;2023-09-19T08:45:26;100460.53;;;15.04;50.50
64053;BME280;50299;49.524;8.536;2023-09-19T08:48:24;100450.72;;;15.42;51.45
64053;BME280;50299;49.524;8.536;2023-09-19T08:50:56;100456.53;;;15.68;49.86
64053;BME280;50299;49.524;8.536;2023-09-19T08:55:59;100451.34;;;15.51;49.47
64053;BME280;50299;49.524;8.536;2023-09-19T08:58:32;100448.50;;;16.02;49.25
64053;BME280;50299;49.524;8.536;2023-09-19T09:01:01;100453.00;;;15.71;50.00
64053;BME280;50299;49.524;8.536;2023-09-19T09:03:32;100459.31;;;15.68;48.73
64053;BME280;50299;49.524;8.536;2023-09-19T09:05:59;100463.88;;;14.94;48.82
64053;BME280;50299;49.524;8.536;2023-09-19T09:08:26;100460.34;;;14.97;50.22
64053;BME280;50299;49.524;8.536;2023-09-19T09:10:53;100462.75;;;15.97;51.30
64053;BME280;50299;49.524;8.536;2023-09-19T09:13:20;100458.75;;;15.63;47.54
64053;BME280;50299;49.524;8.536;2023-09-19T09:15:48;100451.72;;;15.49;47.55
64053;BME280;50299;49.524;8.536;2023-09-19T09:18:15;100456.75;;;15.44;47.46
64053;BME280;50299;49.524;8.536;2023-09-19T09:20:43;100472.41;;;15.84;48.78
64053;BME280;50299;49.524;8.536;2023-09-19T09:23:11;100466.81;;;15.84;46.97
64053;BME280;50299;49.524;8.536;2023-09-19T09:25:52;100472.03;;;15.85;46.78
64053;BME280;50299;49.524;8.536;2023-09-19T09:28:31;100465.22;;;15.67;47.11
64053;BME280;50299;49.524;8.536;2023-09-19T09:31:00;100472.50;;;15.20;45.79
64053;BME280;50299;49.524;8.536;2023-09-19T09:33:35;100470.88;;;15.51;46.22
64053;BME280;50299;49.524;8.536;2023-09-19T09:36:03;100464.81;;;15.49;45.04
64053;BME280;50299;49.524;8.536;2023-09-19T09:38:46;100466.19;;;14.92;46.23
64053;BME280;50299;49.524;8.536;2023-09-19T09:41:15;100461.78;;;14.91;46.65
64053;BME280;50299;49.524;8.536;2023-09-19T09:43:53;100462.69;;;14.95;46.27
64053;BME280;50299;49.524;8.536;2023-09-19T09:46:25;100467.09;;;15.78;47.72
64053;BME280;50299;49.524;8.536;2023-09-19T09:51:40;100464.88;;;15.68;46.73
64053;BME280;50299;49.524;8.536;2023-09-19T09:54:13;100464.78;;;16.19;45.76
64053;BME280;50299;49.524;8.536;2023-09-19T09:57:01;100468.22;;;16.51;46.67
64053;BME280;50299;49.524;8.536;2023-09-19T09:59:51;100461.72;;;16.24;44.46
64053;BME280;50299;49.524;8.536;2023-09-19T10:02:35;100459.72;;;16.44;43.30
64053;BME280;50299;49.524;8.536;2023-09-19T10:05:21;100449.63;;;16.79;44.46
64053;BME280;50299;49.524;8.536;2023-09-19T10:07:54;100464.09;;;17.07;43.68
64053;BME280;50299;49.524;8.536;2023-09-19T10:10:35;100457.56;;;16.57;42.78
64053;BME280;50299;49.524;8.536;2023-09-19T10:13:20;100454.56;;;16.66;43.08
64053;BME280;50299;49.524;8.536;2023-09-19T10:15:51;100448.44;;;16.80;42.96
64053;BME280;50299;49.524;8.536;2023-09-19T10:18:21;100451.25;;;16.80;43.08
64053;BME280;50299;49.524;8.536;2023-09-19T10:20:48;100445.72;;;16.64;45.17
64053;BME280;50299;49.524;8.536;2023-09-19T10:23:20;100444.69;;;17.18;43.69
64053;BME280;50299;49.524;8.536;2023-09-19T10:25:50;100440.38;;;17.47;42.25
64053;BME280;50299;49.524;8.536;2023-09-19T10:28:20;100442.38;;;17.46;41.76
64053;BME280;50299;49.524;8.536;2023-09-19T10:30:52;100429.53;;;17.42;42.42
64053;BME280;50299;49.524;8.536;2023-09-19T10:33:24;100427.88;;;17.97;43.43
64053;BME280;50299;49.524;8.536;2023-09-19T10:35:58;100437.38;;;17.59;41.71
64053;BME280;50299;49.524;8.536;2023-09-19T10:38:27;100434.31;;;17.98;41.35
64053;BME280;50299;49.524;8.536;2023-09-19T10:40:57;100427.72;;;17.83;42.08
64053;BME280;50299;49.524;8.536;2023-09-19T10:43:32;100428.19;;;18.19;42.85
64053;BME280;50299;49.524;8.536;2023-09-19T10:46:07;100436.63;;;18.60;42.99
64053;BME280;50299;49.524;8.536;2023-09-19T10:48:34;100442.94;;;17.89;41.12
64053;BME280;50299;49.524;8.536;2023-09-19T10:51:08;100447.00;;;17.92;41.72
64053;BME280;50299;49.524;8.536;2023-09-19T10:53:41;100440.50;;;17.31;40.94
64053;BME280;50299;49.524;8.536;2023-09-19T10:56:35;100446.72;;;17.70;43.35
64053;BME280;50299;49.524;8.536;2023-09-19T10:59:13;100439.09;;;17.41;43.09
64053;BME280;50299;49.524;8.536;2023-09-19T11:07:10;100437.94;;;18.02;41.85
64053;BME280;50299;49.524;8.536;2023-09-19T11:09:52;100436.72;;;18.33;40.16
64053;BME280;50299;49.524;8.536;2023-09-19T11:15:08;100430.41;;;18.06;42.05
64053;BME280;50299;49.524;8.536;2023-09-19T11:17:41;100422.09;;;18.13;38.65
64053;BME280;50299;49.524;8.536;2023-09-19T11:30:49;100406.09;;;17.50;39.54
64053;BME280;50299;49.524;8.536;2023-09-19T11:33:32;100405.53;;;17.67;40.87
64053;BME280;50299;49.524;8.536;2023-09-19T11:36:14;100413.78;;;17.87;39.96
64053;BME280;50299;49.524;8.536;2023-09-19T11:49:29;100390.53;;;17.49;40.68
64053;BME280;50299;49.524;8.536;2023-09-19T11:52:01;100390.59;;;17.56;40.78
64053;BME280;50299;49.524;8.536;2023-09-19T11:54:35;100397.41;;;17.89;39.46
64053;BME280;50299;49.524;8.536;2023-09-19T11:57:10;100396.88;;;18.43;38.34
64053;BME280;50299;49.524;8.536;2023-09-19T11:59:39;100380.63;;;17.89;38.65
64053;BME280;50299;49.524;8.536;2023-09-19T12:02:06;100386.78;;;18.01;38.33
64053;BME280;50299;49.524;8.536;2023-09-19T12:04:37;100383.44;;;17.89;38.18
64053;BME280;50299;49.524;8.536;2023-09-19T12:07:08;100378.31;;;18.28;38.29
64053;BME280;50299;49.524;8.536;2023-09-19T12:09:43;100381.38;;;18.53;37.20
64053;BME280;50299;49.524;8.536;2023-09-19T12:12:23;100372.91;;;18.90;38.31
64053;BME280;50299;49.524;8.536;2023-09-19T12:14:50;100372.78;;;19.28;39.33
64053;BME280;50299;49.524;8.536;2023-09-19T12:17:17;100374.19;;;19.59;36.54
64053;BME280;50299;49.524;8.536;2023-09-19T12:19:53;100374.84;;;20.21;34.43
64053;BME280;50299;49.524;8.536;2023-09-19T12:22:19;100372.88;;;20.43;37.64
64053;BME280;50299;49.524;8.536;2023-09-19T12:24:50;100364.81;;;20.31;34.54
64053;BME280;50299;49.524;8.536;2023-09-19T12:27:17;100366.34;;;20.00;34.02
64053;BME280;50299;49.524;8.536;2023-09-19T12:29:48;100373.50;;;19.90;35.74
64053;BME280;50299;49.524;8.536;2023-09-19T12:32:16;100376.94;;;19.52;34.90
64053;BME280;50299;49.524;8.536;2023-09-19T12:34:51;100351.59;;;19.34;35.53
64053;BME280;50299;49.524;8.536;2023-09-19T12:37:19;100362.69;;;19.92;35.62
64053;BME280;50299;49.524;8.536;2023-09-19T12:39:51;100355.69;;;19.47;35.01
64053;BME280;50299;49.524;8.536;2023-09-19T12:42:22;100355.31;;;19.48;34.55
64053;BME280;50299;49.524;8.536;2023-09-19T12:44:53;100354.56;;;18.96;35.83
64053;BME280;50299;49.524;8.536;2023-09-19T12:47:23;100353.06;;;19.17;34.80
64053;BME280;50299;49.524;8.536;2023-09-19T12:50:10;100352.88;;;18.85;35.01
64053;BME280;50299;49.524;8.536;2023-09-19T12:52:48;100360.59;;;18.58;36.24
64053;BME280;50299;49.524;8.536;2023-09-19T12:55:29;100357.47;;;19.14;35.54
64053;BME280;50299;49.524;8.536;2023-09-19T12:58:13;100349.78;;;19.70;34.32
64053;BME280;50299;49.524;8.536;2023-09-19T13:00:45;100334.19;;;19.76;35.25
64053;BME280;50299;49.524;8.536;2023-09-19T13:03:24;100347.34;;;19.54;36.22
64053;BME280;50299;49.524;8.536;2023-09-19T13:05:58;100341.31;;;19.52;35.55
64053;BME280;50299;49.524;8.536;2023-09-19T13:08:29;100308.56;;;19.78;37.12
64053;BME280;50299;49.524;8.536;2023-09-19T13:13:30;100345.03;;;19.85;35.17
64053;BME280;50299;49.524;8.536;2023-09-19T13:15:57;100337.19;;;20.37;36.08
64053;BME280;50299;49.524;8.536;2023-09-19T13:18:24;100340.00;;;20.40;33.95
64053;BME280;50299;49.524;8.536;2023-09-19T13:21:06;100331.38;;;19.72;35.35
64053;BME280;50299;49.524;8.536;2023-09-19T13:23:38;100329.09;;;20.10;34.85
64053;BME280;50299;49.524;8.536;2023-09-19T13:26:05;100327.13;;;20.18;34.94
64053;BME280;50299;49.524;8.536;2023-09-19T13:28:33;100316.72;;;20.54;35.23
64053;BME280;50299;49.524;8.536;2023-09-19T13:31:00;100319.91;;;20.35;35.66
64053;BME280;50299;49.524;8.536;2023-09-19T13:33:28;100315.91;;;20.71;34.26
64053;BME280;50299;49.524;8.536;2023-09-19T13:35:56;100319.13;;;20.56;34.14
64053;BME280;50299;49.524;8.536;2023-09-19T13:38:23;100322.78;;;20.78;34.15
64053;BME280;50299;49.524;8.536;2023-09-19T13:40:50;100321.06;;;20.09;34.60
64053;BME280;50299;49.524;8.536;2023-09-19T13:43:19;100315.88;;;20.14;34.98
64053;BME280;50299;49.524;8.536;2023-09-19T13:45:48;100313.53;;;20.45;35.47
64053;BME280;50299;49.524;8.536;2023-09-19T13:48:21;100311.91;;;20.44;34.43
64053;BME280;50299;49.524;8.536;2023-09-19T13:50:51;100312.72;;;20.98;35.53
64053;BME280;50299;49.524;8.536;2023-09-19T13:53:17;100311.38;;;21.35;33.14